Time;durP1;ratioP1;P1;durP2;ratioP2;P2;SDS_P1;SDS_P2;PMS_P1;PMS_P2;Temp;Humidity;BMP_temperature;BMP_pressure;BME280_temperature;BME280_humidity;BME280_pressure;Samples;Min_cycle;Max_cycle;Signal;HPM_P1;HPM_P2
2023/07/04 00:20:36;;;;;;;;;;;;;;;18.00;64.66;99635.06;1088057;54;19934;-84
2023/07/04 00:21:41;;;;;;;;;;;;;;;17.96;65.04;99633.78;1087456;54;19950;-82
2023/07/04 00:22:45;;;;;;;;;;;;;;;18.01;64.68;99634.03;1087288;47;19943;-82
2023/07/04 00:23:52;;;;;;;;;;;;;;;18.01;64.57;99629.44;1087474;46;19962;-82
2023/07/04 00:24:56;;;;;;;;;;;;;;;18.00;64.77;99632.38;1087179;47;19962;-80
2023/07/04 00:25:57;;;;;;;;;;;;;;;18.01;64.45;99634.03;1087629;39;20763;-81
2023/07/04 00:27:00;;;;;;;;;;;;;;;17.99;64.53;99630.69;1086523;47;19977;-82
2023/07/04 00:28:05;;;;;;;;;;;;;;;17.99;64.69;99630.69;1086469;47;20610;-82
2023/07/04 00:29:09;;;;;;;;;;;;;;;18.00;64.64;99633.19;1086175;47;19954;-81
2023/07/04 00:30:12;;;;;;;;;;;;;;;17.99;64.74;99630.69;1086544;47;19970;-81
2023/07/04 00:31:17;;;;;;;;;;;;;;;17.99;64.43;99636.97;1086698;54;19975;-80
2023/07/04 00:32:18;;;;;;;;;;;;;;;17.99;64.56;99633.41;1086892;47;19938;-81
2023/07/04 00:33:22;;;;;;;;;;;;;;;17.97;64.59;99638.19;1086588;47;19947;-81
2023/07/04 00:34:23;;;;;;;;;;;;;;;17.95;64.66;99634.84;1086371;52;20080;-80
2023/07/04 00:35:27;;;;;;;;;;;;;;;17.90;64.78;99633.56;1087038;39;20336;-81
2023/07/04 00:36:29;;;;;;;;;;;;;;;17.94;64.83;99631.28;1086660;54;19950;-81
2023/07/04 00:37:36;;;;;;;;;;;;;;;17.91;64.92;99629.81;1086453;47;19957;-80
2023/07/04 00:38:38;;;;;;;;;;;;;;;17.89;64.80;99634.59;1086352;47;19985;-82
2023/07/04 00:39:42;;;;;;;;;;;;;;;17.93;64.42;99635.88;1088027;39;20698;-81
2023/07/04 00:40:44;;;;;;;;;;;;;;;17.92;64.63;99638.75;1087133;39;20348;-80
2023/07/04 00:41:47;;;;;;;;;;;;;;;17.90;65.00;99636.25;1087515;39;20784;-81
2023/07/04 00:42:49;;;;;;;;;;;;;;;17.91;64.90;99639.78;1087885;39;20344;-80
2023/07/04 00:44:00;;;;;;;;;;;;;;;17.91;64.52;99632.53;1086862;47;19965;-82
2023/07/04 00:45:01;;;;;;;;;;;;;;;17.89;64.78;99637.31;1087076;54;19942;-81
2023/07/04 00:46:04;;;;;;;;;;;;;;;17.92;64.53;99639.59;1087078;54;19943;-82
2023/07/04 00:47:15;;;;;;;;;;;;;;;17.96;64.59;99636.47;1086983;47;20658;-82
2023/07/04 00:48:16;;;;;;;;;;;;;;;17.92;64.58;99636.91;1087063;54;19981;-83
2023/07/04 00:49:22;;;;;;;;;;;;;;;17.88;64.65;99634.81;1089600;39;20657;-81
2023/07/04 00:50:24;;;;;;;;;;;;;;;17.90;64.65;99636.25;1087101;54;19967;-81
2023/07/04 00:51:31;;;;;;;;;;;;;;;17.88;64.94;99640.22;1087530;39;20504;-83
2023/07/04 00:52:36;;;;;;;;;;;;;;;17.91;64.54;99643.34;1087000;54;19943;-81
2023/07/04 00:53:41;;;;;;;;;;;;;;;17.82;64.82;99639.16;1086875;47;20035;-82
2023/07/04 00:54:52;;;;;;;;;;;;;;;17.77;64.97;99641.59;1087088;54;19946;-82
2023/07/04 00:55:58;;;;;;;;;;;;;;;17.75;65.16;99641.81;1087002;47;19938;-80
2023/07/04 00:57:04;;;;;;;;;;;;;;;17.74;65.01;99640.16;1086989;47;19938;-82
2023/07/04 00:58:09;;;;;;;;;;;;;;;17.76;65.42;99642.63;1088271;39;20834;-80
2023/07/04 00:59:10;;;;;;;;;;;;;;;17.78;65.04;99640.56;1091504;39;20896;-80
2023/07/04 01:00:17;;;;;;;;;;;;;;;17.76;65.11;99645.34;1086893;47;19946;-82
2023/07/04 01:01:19;;;;;;;;;;;;;;;17.82;64.92;99641.84;1088736;39;20737;-82
2023/07/04 01:02:27;;;;;;;;;;;;;;;17.75;65.58;99639.13;1086950;47;19994;-82
2023/07/04 01:03:27;;;;;;;;;;;;;;;17.70;65.68;99648.88;1086829;47;19939;-82
2023/07/04 01:04:33;;;;;;;;;;;;;;;17.65;65.83;99635.94;1087620;31;20606;-81
2023/07/04 01:05:39;;;;;;;;;;;;;;;17.74;65.54;99639.34;1087057;47;19938;-81
2023/07/04 01:06:48;;;;;;;;;;;;;;;17.69;65.66;99641.78;1086912;54;19950;-81
2023/07/04 01:07:55;;;;;;;;;;;;;;;17.69;65.33;99650.75;1087013;47;19956;-81
2023/07/04 01:09:04;;;;;;;;;;;;;;;17.69;65.65;99647.19;1086721;47;19942;-82
2023/07/04 01:10:10;;;;;;;;;;;;;;;17.68;65.55;99648.22;1087097;47;19939;-81
2023/07/04 01:11:17;;;;;;;;;;;;;;;17.66;65.89;99653.84;1091812;39;20896;-81
2023/07/04 01:12:19;;;;;;;;;;;;;;;17.66;65.71;99658.44;1087278;46;19951;-81
2023/07/04 01:13:43;;;;;;;;;;;;;;;17.64;65.74;99661.31;1087117;47;19938;-81
2023/07/04 01:14:44;;;;;;;;;;;;;;;17.55;65.88;99649.84;1087424;39;20738;-81
2023/07/04 01:15:47;;;;;;;;;;;;;;;17.51;66.24;99648.56;1087140;47;19938;-80
2023/07/04 01:16:48;;;;;;;;;;;;;;;17.54;66.03;99648.19;1087239;47;20714;-82
2023/07/04 01:17:51;;;;;;;;;;;;;;;17.52;66.16;99652.94;1087103;47;19939;-82
2023/07/04 01:18:55;;;;;;;;;;;;;;;17.49;66.52;99657.91;1087015;46;19964;-80
2023/07/04 01:19:59;;;;;;;;;;;;;;;17.47;66.49;99644.63;1087232;54;19955;-81
2023/07/04 01:21:05;;;;;;;;;;;;;;;17.52;65.90;99658.34;1087971;31;20797;-81
2023/07/04 01:22:22;;;;;;;;;;;;;;;17.51;66.35;99653.97;1087204;46;19946;-81
2023/07/04 01:23:30;;;;;;;;;;;;;;;17.50;66.38;99660.41;1087192;54;19942;-80
2023/07/04 01:24:38;;;;;;;;;;;;;;;17.55;65.89;99655.25;1087186;47;19938;-82
2023/07/04 01:25:46;;;;;;;;;;;;;;;17.49;66.51;99658.75;1087781;39;20527;-82
2023/07/04 01:26:49;;;;;;;;;;;;;;;17.50;66.08;99657.72;1087073;47;19957;-81
2023/07/04 01:27:59;;;;;;;;;;;;;;;17.48;66.37;99662.47;1087286;54;19950;-82
2023/07/04 01:29:01;;;;;;;;;;;;;;;17.50;66.16;99652.31;1087228;47;19953;-81
2023/07/04 01:30:05;;;;;;;;;;;;;;;17.50;66.60;99660.41;1087356;54;19955;-82
2023/07/04 01:31:06;;;;;;;;;;;;;;;17.55;66.30;99659.81;1087518;39;20172;-81
2023/07/04 01:32:11;;;;;;;;;;;;;;;17.57;65.79;99655.88;1087132;54;19942;-80
2023/07/04 01:33:13;;;;;;;;;;;;;;;17.56;66.06;99654.22;1087116;47;19973;-81
2023/07/04 01:34:20;;;;;;;;;;;;;;;17.62;66.03;99653.41;1087030;47;19987;-81
2023/07/04 01:35:22;;;;;;;;;;;;;;;17.56;66.06;99656.06;1086975;47;19954;-81
2023/07/04 01:36:28;;;;;;;;;;;;;;;17.56;66.45;99648.81;1087063;54;20599;-81
2023/07/04 01:37:29;;;;;;;;;;;;;;;17.55;66.37;99654.41;1086936;54;19946;-80
2023/07/04 01:38:33;;;;;;;;;;;;;;;17.60;65.98;99658.19;1087386;54;19927;-80
2023/07/04 01:39:34;;;;;;;;;;;;;;;17.53;66.18;99657.31;1087136;54;19942;-81
2023/07/04 01:40:38;;;;;;;;;;;;;;;17.53;66.19;99660.03;1087005;47;19946;-81
2023/07/04 01:41:39;;;;;;;;;;;;;;;17.53;66.21;99665.44;1087010;46;19939;-80
2023/07/04 01:42:49;;;;;;;;;;;;;;;17.49;66.38;99661.44;1089074;39;20976;-81
2023/07/04 01:43:55;;;;;;;;;;;;;;;17.48;66.52;99662.47;1087113;47;19946;-81
2023/07/04 01:44:58;;;;;;;;;;;;;;;17.56;66.36;99669.59;1087813;54;19978;-85
2023/07/04 01:46:05;;;;;;;;;;;;;;;17.52;66.66;99660.22;1087647;46;19970;-82
2023/07/04 01:47:09;;;;;;;;;;;;;;;17.56;66.20;99662.34;1087766;46;19950;-82
2023/07/04 01:48:09;;;;;;;;;;;;;;;17.66;65.95;99658.44;1087339;47;19942;-80
2023/07/04 01:49:13;;;;;;;;;;;;;;;17.59;65.93;99664.63;1087420;47;19939;-81
2023/07/04 01:50:14;;;;;;;;;;;;;;;17.50;66.55;99663.13;1089130;39;21179;-82
2023/07/04 01:51:29;;;;;;;;;;;;;;;17.54;66.34;99661.69;1087779;46;19950;-84
2023/07/04 01:52:30;;;;;;;;;;;;;;;17.67;65.74;99654.66;1087759;54;19950;-82
2023/07/04 01:53:34;;;;;;;;;;;;;;;17.68;65.78;99657.19;1087689;46;20033;-82
2023/07/04 01:54:35;;;;;;;;;;;;;;;17.62;66.00;99661.53;1087510;54;19976;-84
2023/07/04 01:55:38;;;;;;;;;;;;;;;17.70;65.94;99654.28;1087551;47;20019;-83
2023/07/04 01:56:39;;;;;;;;;;;;;;;17.75;65.77;99652.63;1087635;39;20513;-83
2023/07/04 01:57:46;;;;;;;;;;;;;;;17.76;65.44;99657.00;1087227;47;19950;-83
2023/07/04 01:58:47;;;;;;;;;;;;;;;17.76;65.63;99658.84;1086659;46;19950;-83
2023/07/04 01:59:50;;;;;;;;;;;;;;;17.78;65.53;99649.53;1086663;54;19942;-85
2023/07/04 02:00:55;;;;;;;;;;;;;;;17.81;65.33;99651.00;1090554;39;20884;-83
2023/07/04 02:01:58;;;;;;;;;;;;;;;17.73;65.80;99659.28;1087004;54;19950;-84
2023/07/04 02:02:59;;;;;;;;;;;;;;;17.81;65.61;99660.97;1086725;54;19951;-84
2023/07/04 02:04:04;;;;;;;;;;;;;;;17.83;65.29;99658.91;1087160;46;19938;-84
2023/07/04 02:05:05;;;;;;;;;;;;;;;17.81;65.50;99660.97;1087007;54;19942;-83
2023/07/04 02:06:09;;;;;;;;;;;;;;;17.84;65.14;99650.59;1088088;39;20458;-84
2023/07/04 02:07:11;;;;;;;;;;;;;;;17.82;65.22;99646.41;1087453;39;20508;-84
2023/07/04 02:08:17;;;;;;;;;;;;;;;17.78;65.75;99656.78;1087300;47;19947;-86
2023/07/04 02:09:19;;;;;;;;;;;;;;;17.77;65.87;99665.94;1087052;46;19958;-84
2023/07/04 02:10:23;;;;;;;;;;;;;;;17.76;65.82;99654.31;1086983;54;19973;-85
2023/07/04 02:11:23;;;;;;;;;;;;;;;17.74;66.11;99663.66;1086846;47;20047;-85
2023/07/04 02:12:27;;;;;;;;;;;;;;;17.74;66.03;99663.66;1087115;47;19938;-84
2023/07/04 02:13:31;;;;;;;;;;;;;;;17.72;66.01;99665.72;1087349;46;19931;-85
2023/07/04 02:14:34;;;;;;;;;;;;;;;17.73;66.22;99665.50;1087767;46;19986;-84
2023/07/04 02:15:35;;;;;;;;;;;;;;;17.76;65.80;99664.25;1087632;46;19945;-85
2023/07/04 02:16:44;;;;;;;;;;;;;;;17.72;66.21;99660.31;1087434;47;19978;-85
2023/07/04 02:17:47;;;;;;;;;;;;;;;17.74;66.18;99655.56;1087252;54;20000;-84
2023/07/04 02:18:50;;;;;;;;;;;;;;;17.77;66.02;99660.53;1086950;47;20011;-82
2023/07/04 02:19:53;;;;;;;;;;;;;;;17.73;65.77;99659.28;1087287;46;19947;-84
2023/07/04 02:20:57;;;;;;;;;;;;;;;17.68;66.25;99659.88;1086667;54;19950;-83
2023/07/04 02:21:59;;;;;;;;;;;;;;;17.73;66.14;99653.88;1087212;54;19971;-83
2023/07/04 02:23:02;;;;;;;;;;;;;;;17.72;66.20;99657.63;1087334;54;19943;-82
2023/07/04 09:58:00;;;;;;;;;;;;;;;25.90;35.44;99730.13;1087266;39;20313;-86
2023/07/04 10:00:23;;;;;;;;;;;;;;;25.56;36.25;99722.00;1087761;54;19946;-87
2023/07/04 10:01:24;;;;;;;;;;;;;;;25.45;36.66;99731.97;1087837;54;19966;-86
2023/07/04 10:02:33;;;;;;;;;;;;;;;25.25;36.69;99730.56;1087937;54;19927;-89
2023/07/04 10:03:34;;;;;;;;;;;;;;;25.46;36.63;99728.16;1087698;46;19926;-88
2023/07/04 10:04:40;;;;;;;;;;;;;;;25.75;35.85;99722.53;1090898;39;20833;-88
2023/07/04 10:08:05;;;;;;;;;;;;;;;25.98;34.33;99722.28;1087877;54;19922;-90
2023/07/04 10:09:15;;;;;;;;;;;;;;;26.09;34.25;99716.97;1087654;47;19942;-90
2023/07/04 10:14:00;;;;;;;;;;;;;;;25.60;34.58;99718.50;1090288;39;20917;-88
2023/07/04 10:20:05;;;;;;;;;;;;;;;26.45;32.22;99698.19;1087806;54;19923;-88
2023/07/04 10:21:09;;;;;;;;;;;;;;;26.89;31.45;99691.75;1089822;39;20637;-87
2023/07/04 10:26:05;;;;;;;;;;;;;;;26.28;31.23;99710.06;1087924;54;19938;-85
2023/07/04 10:27:10;;;;;;;;;;;;;;;26.45;31.38;99700.94;1089185;39;20668;-86
2023/07/04 10:28:17;;;;;;;;;;;;;;;26.82;30.70;99696.63;1087619;47;19934;-85
2023/07/04 10:34:30;;;;;;;;;;;;;;;27.59;29.26;99697.19;1087355;54;19943;-88
2023/07/04 10:37:50;;;;;;;;;;;;;;;27.86;28.22;99686.06;1088041;54;19949;-86
2023/07/04 10:41:12;;;;;;;;;;;;;;;27.85;28.96;99689.91;1087891;54;19923;-88
2023/07/04 10:42:17;;;;;;;;;;;;;;;28.10;28.86;99685.59;1087692;47;19945;-85
2023/07/04 10:43:25;;;;;;;;;;;;;;;28.28;28.75;99688.94;1087764;46;19990;-87
2023/07/04 10:47:13;;;;;;;;;;;;;;;27.30;29.74;99688.47;1083280;54;19938;-86
2023/07/04 10:48:16;;;;;;;;;;;;;;;27.37;29.86;99689.06;1087527;47;19939;-89
2023/07/04 10:49:21;;;;;;;;;;;;;;;27.46;29.66;99687.50;1088281;39;20653;-85
2023/07/04 10:50:25;;;;;;;;;;;;;;;27.52;29.41;99680.13;1087762;46;19975;-86
2023/07/04 10:51:30;;;;;;;;;;;;;;;27.38;29.67;99680.56;1088278;31;20799;-86
2023/07/04 10:52:33;;;;;;;;;;;;;;;27.39;29.88;99687.72;1089405;31;20720;-86
2023/07/04 10:53:36;;;;;;;;;;;;;;;27.82;29.12;99679.44;1088821;39;20565;-86
2023/07/04 10:54:37;;;;;;;;;;;;;;;27.78;29.11;99683.00;1087875;47;20070;-86
2023/07/04 10:55:44;;;;;;;;;;;;;;;27.76;29.20;99677.78;1087586;47;19939;-86
2023/07/04 10:57:01;;;;;;;;;;;;;;;27.75;29.18;99678.88;1087782;46;19960;-87
2023/07/04 10:58:11;;;;;;;;;;;;;;;27.98;28.98;99676.72;1087643;47;19983;-85
2023/07/04 10:59:14;;;;;;;;;;;;;;;27.53;29.23;99674.38;1087340;54;19942;-87
2023/07/04 11:00:23;;;;;;;;;;;;;;;27.29;29.24;99671.19;1087459;47;19979;-86
2023/07/04 11:01:26;;;;;;;;;;;;;;;27.40;28.66;99678.38;1087443;47;19947;-86
2023/07/04 11:02:32;;;;;;;;;;;;;;;27.08;29.10;99686.69;1087529;54;19954;-86
2023/07/04 11:03:40;;;;;;;;;;;;;;;27.04;28.62;99678.16;1088585;39;21234;31
2023/07/04 11:04:43;;;;;;;;;;;;;;;27.43;28.36;99676.22;1087427;47;19949;-89
2023/07/04 11:05:49;;;;;;;;;;;;;;;27.29;28.50;99671.19;1087615;54;19973;-88
2023/07/04 11:10:42;;;;;;;;;;;;;;;27.58;28.64;99673.56;1087550;54;19942;-87
2023/07/04 11:11:44;;;;;;;;;;;;;;;27.28;29.05;99665.97;1087572;47;19942;-86
2023/07/04 11:12:48;;;;;;;;;;;;;;;27.60;28.59;99671.38;1086965;47;19938;-86
2023/07/04 11:13:54;;;;;;;;;;;;;;;27.70;28.48;99676.94;1087392;54;19994;-86
2023/07/04 11:17:15;;;;;;;;;;;;;;;27.30;28.32;99669.28;1087014;54;20651;-87
2023/07/04 11:18:17;;;;;;;;;;;;;;;27.77;28.16;99671.19;1087142;47;20895;-86
2023/07/04 11:19:22;;;;;;;;;;;;;;;27.61;27.86;99662.06;1087662;47;19943;-85
2023/07/04 11:21:55;;;;;;;;;;;;;;;27.95;27.84;99669.88;1087981;54;19939;-87
2023/07/04 11:22:57;;;;;;;;;;;;;;;28.08;27.58;99665.81;1087575;54;19950;-88
2023/07/04 11:24:16;;;;;;;;;;;;;;;28.10;28.10;99669.13;1087901;54;19949;-88
2023/07/04 11:25:29;;;;;;;;;;;;;;;28.02;27.94;99666.88;1087831;47;20016;-90
2023/07/04 11:26:49;;;;;;;;;;;;;;;27.96;27.68;99667.97;1087891;54;19986;-88
2023/07/04 11:28:11;;;;;;;;;;;;;;;27.62;27.54;99663.72;1087997;46;19939;-85
2023/07/04 11:29:20;;;;;;;;;;;;;;;27.52;27.62;99678.19;1087993;54;19958;-88
2023/07/04 11:30:32;;;;;;;;;;;;;;;27.25;27.90;99668.16;1088260;39;20912;-86
2023/07/04 11:31:36;;;;;;;;;;;;;;;27.34;28.01;99668.47;1087617;54;19949;-86
2023/07/04 11:32:51;;;;;;;;;;;;;;;27.22;28.03;99676.06;1087855;39;21166;-89
2023/07/04 11:34:05;;;;;;;;;;;;;;;27.30;28.17;99666.53;1087731;46;20685;-87
2023/07/04 11:35:17;;;;;;;;;;;;;;;27.36;28.27;99666.28;1087555;54;20002;-88
2023/07/04 11:36:23;;;;;;;;;;;;;;;27.24;28.32;99669.22;1087395;46;19944;-88
2023/07/04 11:37:32;;;;;;;;;;;;;;;27.11;28.43;99680.69;1087247;47;19939;-87
2023/07/04 11:38:33;;;;;;;;;;;;;;;27.13;28.45;99667.50;1087201;46;19966;-87
2023/07/04 11:39:37;;;;;;;;;;;;;;;26.96;28.40;99666.84;1087223;54;19977;-86
2023/07/04 11:40:42;;;;;;;;;;;;;;;26.82;28.59;99667.31;1087831;54;20311;-88
2023/07/04 11:41:47;;;;;;;;;;;;;;;26.79;28.58;99662.34;1087611;47;19986;-87
2023/07/04 11:42:53;;;;;;;;;;;;;;;26.56;28.87;99669.78;1087631;54;19966;-88
2023/07/04 11:43:55;;;;;;;;;;;;;;;26.72;28.48;99665.25;1087394;47;19942;-87
2023/07/04 11:46:10;;;;;;;;;;;;;;;26.50;28.94;99659.06;1087191;54;20780;-86
2023/07/04 11:47:15;;;;;;;;;;;;;;;26.69;28.63;99662.22;1087780;54;19949;-89
2023/07/04 11:48:19;;;;;;;;;;;;;;;26.61;28.68;99661.63;1088109;54;19942;-88
2023/07/04 11:49:20;;;;;;;;;;;;;;;26.74;28.34;99656.75;1087588;47;20186;-86
2023/07/04 11:50:31;;;;;;;;;;;;;;;26.77;28.34;99664.50;1087429;54;19942;-87
2023/07/04 11:59:17;;;;;;;;;;;;;;;27.03;27.74;99642.75;1088373;54;19943;-88
2023/07/04 12:00:44;;;;;;;;;;;;;;;26.81;27.47;99660.16;1087851;46;19977;-88
2023/07/04 12:02:05;;;;;;;;;;;;;;;26.71;27.58;99654.56;1088004;46;19949;-88
2023/07/04 12:03:20;;;;;;;;;;;;;;;26.43;28.41;99657.34;1087584;47;20714;-87
2023/07/04 12:04:46;;;;;;;;;;;;;;;26.61;27.89;99645.19;1087691;47;19943;-88
2023/07/04 12:05:50;;;;;;;;;;;;;;;26.69;27.87;99643.84;1087491;47;19934;-87
2023/07/04 12:07:04;;;;;;;;;;;;;;;26.94;27.31;99639.69;1087343;54;20029;-86
2023/07/04 12:08:07;;;;;;;;;;;;;;;26.92;27.51;99647.34;1087288;47;20020;-86
2023/07/04 12:10:19;;;;;;;;;;;;;;;26.72;27.89;99643.34;1086852;54;21367;-88
2023/07/04 12:17:33;;;;;;;;;;;;;;;26.77;26.85;99637.94;1087818;54;19994;-87
2023/07/04 12:18:37;;;;;;;;;;;;;;;27.02;26.64;99627.38;1087567;54;19954;-88
2023/07/04 12:19:44;;;;;;;;;;;;;;;27.18;26.74;99629.16;1086957;47;19990;-86
2023/07/04 12:20:45;;;;;;;;;;;;;;;27.13;26.32;99623.63;1087114;47;19995;-88
2023/07/04 12:21:50;;;;;;;;;;;;;;;27.20;26.47;99624.22;1087273;54;19966;-87
2023/07/04 12:22:54;;;;;;;;;;;;;;;27.23;26.35;99620.94;1087413;54;19942;-87
2023/07/04 12:23:55;;;;;;;;;;;;;;;27.39;26.34;99626.53;1087162;47;19966;-86
2023/07/04 12:25:08;;;;;;;;;;;;;;;27.22;26.40;99623.97;1087656;47;19926;-86
2023/07/04 12:26:09;;;;;;;;;;;;;;;27.12;26.35;99627.44;1087512;47;19950;-87
2023/07/04 12:27:13;;;;;;;;;;;;;;;27.24;26.15;99628.09;1087406;54;20670;-89
2023/07/04 12:28:14;;;;;;;;;;;;;;;27.01;25.93;99623.00;1087621;47;19975;-88
2023/07/04 12:29:18;;;;;;;;;;;;;;;27.28;25.87;99622.06;1087235;46;20666;-88
2023/07/04 12:30:19;;;;;;;;;;;;;;;27.24;26.38;99625.34;1087404;47;19943;-87
2023/07/04 12:31:23;;;;;;;;;;;;;;;27.13;26.12;99617.31;1087396;54;20669;-89
2023/07/04 12:32:24;;;;;;;;;;;;;;;27.29;26.24;99612.75;1089580;39;20561;-87
2023/07/04 12:33:29;;;;;;;;;;;;;;;27.16;26.26;99608.56;1087409;54;19942;-88
2023/07/04 12:34:29;;;;;;;;;;;;;;;27.11;26.35;99616.75;1087341;47;19950;-87
2023/07/04 12:35:37;;;;;;;;;;;;;;;27.15;26.43;99613.22;1087502;54;19966;-88
2023/07/04 12:36:44;;;;;;;;;;;;;;;27.20;26.32;99609.69;1087621;54;20006;-87
2023/07/04 12:37:48;;;;;;;;;;;;;;;27.12;26.09;99605.50;1087427;46;19942;-87
2023/07/04 12:38:50;;;;;;;;;;;;;;;27.02;26.06;99614.50;1087356;47;20855;-87
2023/07/04 12:39:54;;;;;;;;;;;;;;;26.96;26.40;99606.50;1087432;47;19990;-88
2023/07/04 12:40:56;;;;;;;;;;;;;;;26.86;26.11;99616.31;1087741;54;19943;-87
2023/07/04 12:42:00;;;;;;;;;;;;;;;26.79;26.14;99615.72;1087796;54;20921;-86
2023/07/04 12:43:04;;;;;;;;;;;;;;;26.93;25.92;99608.69;1087521;54;19942;-87
2023/07/04 12:44:09;;;;;;;;;;;;;;;27.01;26.04;99612.84;1087430;54;19942;-89
2023/07/04 12:45:15;;;;;;;;;;;;;;;26.88;26.41;99608.66;1087757;47;19954;-86
2023/07/04 12:46:20;;;;;;;;;;;;;;;26.79;26.75;99607.50;1087434;54;19954;-86
2023/07/04 12:47:25;;;;;;;;;;;;;;;27.05;26.39;99607.66;1087429;54;19955;-86
2023/07/04 12:48:28;;;;;;;;;;;;;;;27.23;26.17;99599.00;1087409;54;19942;-87
2023/07/04 12:49:29;;;;;;;;;;;;;;;27.36;26.37;99592.19;1087445;54;19943;-87
2023/07/04 12:50:34;;;;;;;;;;;;;;;27.51;25.93;99599.69;1087436;47;19967;-88
2023/07/04 12:51:39;;;;;;;;;;;;;;;27.68;25.97;99599.50;1087527;54;19973;-89
2023/07/04 12:52:42;;;;;;;;;;;;;;;27.49;26.13;99595.56;1087436;47;19938;-87
2023/07/04 12:53:44;;;;;;;;;;;;;;;27.28;25.99;99603.69;1087572;54;20011;-89
2023/07/04 12:54:48;;;;;;;;;;;;;;;27.28;25.97;99597.38;1087844;47;20059;-86
2023/07/04 12:55:55;;;;;;;;;;;;;;;27.17;26.07;99599.22;1087117;47;19942;-86
2023/07/04 12:56:56;;;;;;;;;;;;;;;27.12;25.98;99600.03;1087237;47;20946;-86
2023/07/04 12:58:00;;;;;;;;;;;;;;;27.29;25.97;99593.53;1086888;47;20022;-86
2023/07/04 12:59:01;;;;;;;;;;;;;;;27.25;25.91;99596.81;1087082;54;20788;-84
2023/07/04 13:00:13;;;;;;;;;;;;;;;27.42;25.79;99590.28;1087369;54;19966;-84
2023/07/04 13:01:19;;;;;;;;;;;;;;;27.30;25.85;99589.72;1087102;47;19943;-86
2023/07/04 13:02:25;;;;;;;;;;;;;;;27.41;25.69;99588.66;1086931;47;19963;-86
2023/07/04 13:03:26;;;;;;;;;;;;;;;27.22;25.30;99586.38;1086959;47;19942;-86
2023/07/04 13:04:29;;;;;;;;;;;;;;;27.22;25.35;99591.84;1086825;47;21225;-86
2023/07/04 13:05:39;;;;;;;;;;;;;;;27.39;25.32;99585.38;1086988;54;19943;-87
2023/07/04 13:06:47;;;;;;;;;;;;;;;27.33;25.09;99575.44;1089569;39;21041;-86
2023/07/04 13:07:51;;;;;;;;;;;;;;;27.32;25.13;99598.47;1087453;54;19942;-87
2023/07/04 13:08:54;;;;;;;;;;;;;;;27.37;25.42;99584.81;1087274;47;19951;-86
2023/07/04 13:09:59;;;;;;;;;;;;;;;27.46;25.33;99576.88;1087127;47;19950;-85
2023/07/04 13:11:00;;;;;;;;;;;;;;;27.69;25.29;99581.94;1087336;54;19959;-86
2023/07/04 13:12:04;;;;;;;;;;;;;;;27.73;24.90;99582.22;1087353;47;19939;-86
2023/07/04 13:13:17;;;;;;;;;;;;;;;27.79;24.78;99581.13;1087251;46;19939;-86
2023/07/04 13:14:22;;;;;;;;;;;;;;;27.38;24.94;99590.00;1087379;47;19951;-85
2023/07/04 13:15:28;;;;;;;;;;;;;;;27.25;25.08;99588.59;1087105;46;19943;-88
2023/07/04 13:16:29;;;;;;;;;;;;;;;27.52;24.70;99582.13;1089751;39;20790;-85
2023/07/04 13:17:33;;;;;;;;;;;;;;;27.66;24.79;99584.41;1087200;54;19943;-86
2023/07/04 13:18:37;;;;;;;;;;;;;;;27.78;24.36;99579.47;1087109;54;19946;-87
2023/07/04 13:19:42;;;;;;;;;;;;;;;27.61;24.86;99576.97;1087281;54;20812;-86
2023/07/04 13:20:58;;;;;;;;;;;;;;;27.47;25.06;99579.38;1087210;54;20066;-88
2023/07/04 13:22:19;;;;;;;;;;;;;;;27.61;25.17;99579.72;1087220;47;19948;-85
2023/07/04 13:23:23;;;;;;;;;;;;;;;27.61;25.22;99578.88;1088080;39;20902;-88
2023/07/04 13:24:40;;;;;;;;;;;;;;;27.38;25.43;99572.72;1087158;54;19973;-87
2023/07/04 13:25:53;;;;;;;;;;;;;;;27.33;25.25;99580.94;1087275;54;20308;-89
2023/07/04 13:26:58;;;;;;;;;;;;;;;27.38;25.29;99580.97;1087007;47;20002;-86
2023/07/04 13:28:07;;;;;;;;;;;;;;;27.44;25.44;99571.69;1087173;46;20022;-85
2023/07/04 13:29:21;;;;;;;;;;;;;;;27.30;25.66;99567.75;1087185;46;19938;-85
2023/07/04 13:30:29;;;;;;;;;;;;;;;27.31;25.78;99572.97;1087260;54;19942;-86
2023/07/04 13:31:34;;;;;;;;;;;;;;;27.37;25.97;99573.81;1087282;46;19943;-85
2023/07/04 13:32:35;;;;;;;;;;;;;;;27.30;26.13;99565.03;1087497;54;19942;-85
2023/07/04 13:33:39;;;;;;;;;;;;;;;27.40;26.11;99568.63;1087487;47;20041;-87
2023/07/04 13:34:42;;;;;;;;;;;;;;;27.50;25.81;99565.09;1087429;47;19946;-88
2023/07/04 13:35:45;;;;;;;;;;;;;;;27.60;25.79;99567.06;1087335;54;19977;-86
2023/07/04 13:36:46;;;;;;;;;;;;;;;27.61;25.58;99573.38;1087343;47;19949;-86
2023/07/04 13:37:53;;;;;;;;;;;;;;;27.59;25.39;99570.91;1087973;31;20744;-84
2023/07/04 13:38:53;;;;;;;;;;;;;;;27.75;25.02;99580.03;1087214;47;19968;-84
2023/07/04 13:39:57;;;;;;;;;;;;;;;27.49;25.32;99565.38;1088512;46;19988;-86
2023/07/04 13:40:58;;;;;;;;;;;;;;;27.47;25.46;99565.66;1087458;54;19942;-87
2023/07/04 13:42:02;;;;;;;;;;;;;;;27.57;25.30;99566.78;1087696;47;19943;-85
2023/07/04 13:43:07;;;;;;;;;;;;;;;27.53;25.19;99578.31;1087432;47;19942;-87
2023/07/04 13:44:11;;;;;;;;;;;;;;;27.81;25.20;99575.38;1087608;47;19982;-86
2023/07/04 13:45:12;;;;;;;;;;;;;;;27.90;25.02;99564.66;1087612;54;19946;-85
2023/07/04 13:46:17;;;;;;;;;;;;;;;28.07;25.04;99565.28;1090838;39;20637;-86
2023/07/04 13:47:18;;;;;;;;;;;;;;;27.67;25.79;99562.16;1087688;54;20027;-85
2023/07/04 13:48:21;;;;;;;;;;;;;;;27.68;25.42;99562.97;1087766;54;20028;-84
2023/07/04 13:49:23;;;;;;;;;;;;;;;27.86;25.81;99559.75;1087888;46;19958;-84
2023/07/04 13:50:34;;;;;;;;;;;;;;;27.68;25.79;99558.31;1087691;47;19954;-86
2023/07/04 13:51:35;;;;;;;;;;;;;;;27.89;25.68;99554.78;1087758;54;19977;-85
2023/07/04 13:52:39;;;;;;;;;;;;;;;27.99;25.56;99557.53;1087798;47;19942;-86
2023/07/04 13:53:47;;;;;;;;;;;;;;;28.13;25.54;99555.13;1087899;47;19927;-85
2023/07/04 13:56:00;;;;;;;;;;;;;;;28.24;25.83;99553.22;1088380;54;19983;-87
2023/07/04 13:57:01;;;;;;;;;;;;;;;28.38;25.33;99554.28;1089012;46;19993;-85
2023/07/04 13:58:04;;;;;;;;;;;;;;;28.26;25.30;99559.25;1087898;47;19938;-85
2023/07/04 13:59:05;;;;;;;;;;;;;;;28.27;25.35;99556.22;1088272;54;19995;-85
2023/07/04 14:00:09;;;;;;;;;;;;;;;28.41;25.25;99553.75;1087805;47;19935;-86
2023/07/04 14:01:13;;;;;;;;;;;;;;;28.32;24.98;99549.91;1087804;47;19923;-85
2023/07/04 14:02:14;;;;;;;;;;;;;;;27.81;25.44;99551.47;1088102;47;19942;-85
2023/07/04 14:03:18;;;;;;;;;;;;;;;27.62;25.93;99553.06;1092917;39;20267;-86
2023/07/04 14:04:19;;;;;;;;;;;;;;;27.71;25.59;99548.69;1087972;47;19943;-85
2023/07/04 14:05:23;;;;;;;;;;;;;;;27.78;25.59;99552.00;1087699;47;19978;-85
2023/07/04 14:06:23;;;;;;;;;;;;;;;27.76;25.49;99543.25;1087812;46;19943;-85
2023/07/04 14:07:27;;;;;;;;;;;;;;;27.92;25.13;99546.00;1087836;47;19949;-86
2023/07/04 14:08:28;;;;;;;;;;;;;;;27.68;25.08;99552.81;1088037;47;19998;-85
2023/07/04 14:09:35;;;;;;;;;;;;;;;27.46;25.69;99549.44;1087881;47;19977;-85
2023/07/04 14:10:36;;;;;;;;;;;;;;;27.56;25.51;99538.50;1087949;54;20125;-87
2023/07/04 14:11:39;;;;;;;;;;;;;;;27.81;25.46;99536.94;1087896;54;19966;-86
2023/07/04 14:12:42;;;;;;;;;;;;;;;27.94;25.16;99528.16;1088081;47;19938;-85
2023/07/04 14:13:45;;;;;;;;;;;;;;;28.25;25.18;99541.94;1088292;54;19949;-88
2023/07/04 14:14:46;;;;;;;;;;;;;;;28.25;25.47;99541.09;1088178;54;19942;-85
2023/07/04 14:15:55;;;;;;;;;;;;;;;28.14;25.85;99543.88;1088206;46;19948;-87
2023/07/04 14:16:56;;;;;;;;;;;;;;;28.24;25.91;99536.72;1088000;54;19965;-86
2023/07/04 14:18:02;;;;;;;;;;;;;;;28.45;25.63;99530.09;1087691;47;19966;-88
2023/07/04 14:19:03;;;;;;;;;;;;;;;28.53;25.01;99538.91;1087955;47;19978;-86
2023/07/04 14:20:08;;;;;;;;;;;;;;;28.76;24.78;99534.78;1088022;54;19943;-85
2023/07/04 14:21:09;;;;;;;;;;;;;;;29.08;24.64;99533.56;1088144;46;19934;-85
2023/07/04 14:22:13;;;;;;;;;;;;;;;29.40;24.08;99530.44;1088087;47;19966;-87
2023/07/04 14:23:14;;;;;;;;;;;;;;;29.72;23.87;99531.91;1087914;47;19949;-86
2023/07/04 14:24:17;;;;;;;;;;;;;;;29.31;24.41;99526.59;1087964;54;19957;-85
2023/07/04 14:26:44;;;;;;;;;;;;;;;29.87;23.70;99521.88;1088276;54;19934;-87
2023/07/04 14:27:46;;;;;;;;;;;;;;;29.96;23.55;99517.44;1087814;47;20000;-86